createdAt,value
2022-11-01T00:02:46.916Z,4.182
2022-11-01T00:07:48.465Z,4.184
2022-11-01T00:12:49.956Z,4.184
2022-11-01T00:17:51.748Z,4.184
2022-11-01T00:22:53.355Z,4.184
2022-11-01T00:27:54.994Z,4.184
2022-11-01T00:32:56.769Z,4.184
2022-11-01T00:37:58.730Z,4.184
2022-11-01T00:43:00.580Z,4.184
2022-11-01T00:48:01.962Z,4.184
2022-11-01T00:53:03.250Z,4.184
2022-11-01T00:58:05.054Z,4.184
2022-11-01T01:03:06.622Z,4.184
2022-11-01T01:08:08.358Z,4.184
2022-11-01T01:13:10.553Z,4.184
2022-11-01T01:18:12.250Z,4.184
2022-11-01T01:23:13.752Z,4.184
2022-11-01T01:28:15.116Z,4.184
2022-11-01T01:33:16.437Z,4.184
2022-11-01T01:38:18.242Z,4.184
2022-11-01T01:43:19.449Z,4.184
2022-11-01T01:48:20.939Z,4.184
2022-11-01T01:53:22.869Z,4.184
2022-11-01T01:58:24.212Z,4.184
2022-11-01T02:03:25.769Z,4.184
2022-11-01T02:08:27.733Z,4.184
2022-11-01T02:13:29.643Z,4.184
2022-11-01T02:18:31.628Z,4.184
2022-11-01T02:23:32.883Z,4.184
2022-11-01T02:28:35.104Z,4.184
2022-11-01T02:33:36.428Z,4.184
2022-11-01T02:38:38.185Z,4.184
2022-11-01T02:43:39.591Z,4.184
2022-11-01T02:48:41.095Z,4.184
2022-11-01T02:53:42.690Z,4.184
2022-11-01T02:58:44.765Z,4.184
2022-11-01T03:03:46.205Z,4.184
2022-11-01T03:08:48.279Z,4.184
2022-11-01T03:13:49.617Z,4.184
2022-11-01T03:18:51.676Z,4.184
2022-11-01T03:23:53.437Z,4.182
2022-11-01T03:33:56.781Z,4.184
2022-11-01T03:38:57.999Z,4.184
2022-11-01T03:44:00.201Z,4.184
2022-11-01T03:49:01.939Z,4.184
2022-11-01T03:54:03.270Z,4.184
2022-11-01T03:59:04.966Z,4.184
2022-11-01T04:04:06.435Z,4.184
2022-11-01T04:09:07.702Z,4.184
2022-11-01T04:14:09.510Z,4.184
2022-11-01T04:19:10.928Z,4.184
2022-11-01T04:24:12.432Z,4.184
2022-11-01T04:29:14.283Z,4.184
2022-11-01T04:34:15.477Z,4.184
2022-11-01T04:39:17.040Z,4.182
2022-11-01T04:44:19.047Z,4.184
2022-11-01T04:49:20.344Z,4.184
2022-11-01T04:54:22.102Z,4.184
2022-11-01T04:59:23.834Z,4.184
2022-11-01T05:04:25.716Z,4.184
2022-11-01T05:09:27.614Z,4.184
2022-11-01T05:14:28.888Z,4.184
2022-11-01T05:19:30.606Z,4.184
2022-11-01T05:24:32.221Z,4.182
2022-11-01T05:29:34.130Z,4.184
2022-11-01T05:34:35.405Z,4.184
2022-11-01T05:39:37.037Z,4.184
2022-11-01T05:44:38.329Z,4.184
2022-11-01T05:49:40.485Z,4.184
2022-11-01T05:54:42.477Z,4.184
2022-11-01T05:59:44.086Z,4.184
2022-11-01T06:04:45.653Z,4.184
2022-11-01T06:09:47.254Z,4.182
2022-11-01T06:14:48.768Z,4.184
2022-11-01T06:19:50.398Z,4.184
2022-11-01T06:24:52.054Z,4.182
2022-11-01T06:29:54.131Z,4.182
2022-11-01T06:34:55.630Z,4.182
2022-11-01T06:39:56.808Z,4.184
2022-11-01T06:44:58.479Z,4.182
2022-11-01T06:49:59.920Z,4.184
2022-11-01T06:55:01.297Z,4.184
2022-11-01T07:00:02.834Z,4.184
2022-11-01T07:05:04.424Z,4.184
2022-11-01T07:10:06.373Z,4.184
2022-11-01T07:15:07.729Z,4.184
2022-11-01T07:20:09.278Z,4.186
2022-11-01T07:25:11.227Z,4.186
2022-11-01T07:30:12.549Z,4.186
2022-11-01T07:35:14.233Z,4.186
2022-11-01T07:40:15.991Z,4.186
2022-11-01T07:45:18.084Z,4.188
2022-11-01T07:50:19.763Z,4.192
2022-11-01T07:55:21.507Z,4.194
2022-11-01T08:00:22.945Z,4.202
2022-11-01T08:05:24.895Z,4.198
2022-11-01T08:10:27.014Z,4.196
2022-11-01T08:15:29.026Z,4.196
2022-11-01T08:20:30.632Z,4.196
2022-11-01T08:25:32.353Z,4.196
2022-11-01T08:30:33.940Z,4.196
2022-11-01T08:35:35.937Z,4.196
2022-11-01T08:40:37.579Z,4.194
2022-11-01T08:45:39.246Z,4.194
2022-11-01T08:50:40.697Z,4.194
2022-11-01T08:55:42.268Z,4.194
2022-11-01T09:00:44.286Z,4.194
2022-11-01T09:05:45.597Z,4.194
2022-11-01T09:10:47.234Z,4.194
2022-11-01T09:15:49.267Z,4.194
2022-11-01T09:20:51.198Z,4.194
2022-11-01T09:25:53.237Z,4.194
2022-11-01T09:31:01.217Z,4.194
2022-11-01T09:35:59.495Z,4.194
2022-11-01T09:40:58.332Z,4.194
2022-11-01T09:46:00.378Z,4.194
2022-11-01T09:51:01.677Z,4.194
2022-11-01T09:56:03.158Z,4.194
2022-11-01T10:01:04.768Z,4.194
2022-11-01T10:06:06.757Z,4.194
2022-11-01T10:11:08.532Z,4.194
2022-11-01T10:16:09.946Z,4.194
2022-11-01T10:21:11.740Z,4.194
2022-11-01T10:26:12.972Z,4.194
2022-11-01T10:31:14.897Z,4.194
2022-11-01T10:36:16.669Z,4.194
2022-11-01T10:41:18.534Z,4.194
2022-11-01T10:51:26.819Z,4.194
2022-11-01T11:01:26.056Z,4.194
2022-11-01T11:01:32.348Z,4.194
2022-11-01T11:11:35.319Z,4.194
2022-11-01T11:16:37.283Z,4.194
2022-11-01T11:31:42.175Z,4.194
2022-11-01T11:36:43.452Z,4.194
2022-11-01T11:41:45.559Z,4.194
2022-11-01T11:51:48.955Z,4.192
2022-11-01T11:56:50.863Z,4.192
2022-11-01T12:01:52.875Z,4.194
2022-11-01T12:06:54.473Z,4.192
2022-11-01T12:11:56.608Z,4.194
2022-11-01T12:16:57.838Z,4.192
2022-11-01T12:21:59.566Z,4.192
2022-11-01T12:27:01.113Z,4.192
2022-11-01T12:32:02.460Z,4.194
2022-11-01T12:37:20.935Z,4.192
2022-11-01T12:42:05.869Z,4.192
2022-11-01T12:47:07.923Z,4.192
2022-11-01T12:52:09.285Z,4.194
2022-11-01T12:57:10.647Z,4.194
2022-11-01T13:02:12.180Z,4.194
2022-11-01T13:07:13.945Z,4.192
2022-11-01T13:12:15.560Z,4.192
2022-11-01T13:22:18.888Z,4.194
2022-11-01T13:27:20.907Z,4.194
2022-11-01T13:32:22.758Z,4.194
2022-11-01T13:37:24.178Z,4.194
2022-11-01T13:42:25.716Z,4.192
2022-11-01T13:47:27.624Z,4.194
2022-11-01T13:52:29.020Z,4.194
2022-11-01T13:57:31.017Z,4.194
2022-11-01T14:02:32.939Z,4.192
2022-11-01T14:07:34.006Z,4.194
2022-11-01T14:12:36.081Z,4.194
2022-11-01T14:17:37.846Z,4.194
2022-11-01T14:22:39.356Z,4.194
2022-11-01T14:27:41.257Z,4.192
2022-11-01T14:32:42.966Z,4.194
2022-11-01T14:37:44.909Z,4.194
2022-11-01T14:42:46.862Z,4.194
2022-11-01T14:47:48.717Z,4.194
2022-11-01T14:52:50.277Z,4.194
2022-11-01T14:57:52.016Z,4.192
2022-11-01T15:02:53.890Z,4.194
2022-11-01T15:07:55.107Z,4.194
2022-11-01T15:12:56.757Z,4.194
2022-11-01T15:17:58.284Z,4.194
2022-11-01T15:23:00.180Z,4.194
2022-11-01T15:28:01.188Z,4.194
2022-11-01T15:33:03.676Z,4.194
2022-11-01T15:38:04.722Z,4.194
2022-11-01T15:43:06.698Z,4.194
2022-11-01T15:48:08.066Z,4.194
2022-11-01T15:53:10.775Z,4.194
2022-11-01T15:58:11.461Z,4.194
2022-11-01T16:03:12.963Z,4.194
2022-11-01T16:08:14.960Z,4.194
2022-11-01T16:13:16.480Z,4.194
2022-11-01T16:18:18.605Z,4.194
2022-11-01T16:23:20.343Z,4.194
2022-11-01T16:28:22.343Z,4.194
2022-11-01T16:33:24.271Z,4.194
2022-11-01T16:38:26.168Z,4.194
2022-11-01T16:43:27.294Z,4.194
2022-11-01T16:48:29.244Z,4.192
2022-11-01T16:53:30.614Z,4.194
2022-11-01T16:58:32.152Z,4.194
2022-11-01T17:03:33.766Z,4.194
2022-11-01T17:08:35.738Z,4.194
2022-11-01T17:13:37.655Z,4.194
2022-11-01T17:18:39.500Z,4.194
2022-11-01T17:23:40.940Z,4.194
2022-11-01T17:28:44.602Z,4.194
2022-11-01T17:33:44.411Z,4.194
2022-11-01T17:38:45.690Z,4.194
2022-11-01T17:43:47.128Z,4.194
2022-11-01T17:48:48.623Z,4.194
2022-11-01T17:53:50.437Z,4.194
2022-11-01T17:58:52.455Z,4.194
2022-11-01T18:03:54.247Z,4.194
2022-11-01T18:08:55.992Z,4.194
2022-11-01T18:14:02.639Z,4.194
2022-11-01T18:19:00.091Z,4.194
2022-11-01T18:24:02.009Z,4.194
2022-11-01T18:29:03.098Z,4.194
2022-11-01T18:34:04.385Z,4.194
2022-11-01T18:39:06.370Z,4.194
2022-11-01T18:44:08.443Z,4.194
2022-11-01T18:49:10.235Z,4.194
2022-11-01T18:54:11.613Z,4.194
2022-11-01T18:59:13.358Z,4.194
2022-11-01T19:04:14.772Z,4.194
2022-11-01T19:09:16.087Z,4.194
2022-11-01T19:14:17.434Z,4.194
2022-11-01T19:19:18.831Z,4.194
2022-11-01T19:24:20.300Z,4.194
2022-11-01T19:29:21.790Z,4.194
2022-11-01T19:34:23.656Z,4.194
2022-11-01T19:39:25.606Z,4.194
2022-11-01T19:44:26.852Z,4.194
2022-11-01T19:49:28.853Z,4.194
2022-11-01T19:54:30.923Z,4.194
2022-11-01T19:59:32.761Z,4.194
2022-11-01T20:04:34.513Z,4.194
2022-11-01T20:09:36.427Z,4.194
2022-11-01T20:14:38.521Z,4.194
2022-11-01T20:19:40.005Z,4.194
2022-11-01T20:24:42.052Z,4.194
2022-11-01T20:29:44.150Z,4.194
2022-11-01T20:34:45.456Z,4.194
2022-11-01T20:39:47.605Z,4.194
2022-11-01T20:44:49.316Z,4.194
2022-11-01T20:49:50.942Z,4.194
2022-11-01T20:54:52.442Z,4.194
2022-11-01T20:59:53.586Z,4.194
2022-11-01T21:04:55.293Z,4.194
2022-11-01T21:09:56.948Z,4.194
2022-11-01T21:14:58.523Z,4.194
2022-11-01T21:20:00.522Z,4.194
2022-11-01T21:25:02.579Z,4.194
2022-11-01T21:30:03.703Z,4.194
2022-11-01T21:35:05.673Z,4.194
2022-11-01T21:40:09.736Z,4.194
2022-11-01T21:45:09.114Z,4.194
2022-11-01T21:50:10.693Z,4.194
2022-11-01T21:55:11.959Z,4.194
2022-11-01T22:00:13.786Z,4.194
2022-11-01T22:05:15.446Z,4.194
2022-11-01T22:10:17.018Z,4.194
2022-11-01T22:15:18.467Z,4.194
2022-11-01T22:20:20.446Z,4.194
2022-11-01T22:25:22.538Z,4.194
2022-11-01T22:30:23.779Z,4.194
2022-11-01T22:35:24.889Z,4.194
2022-11-01T22:40:26.469Z,4.194
2022-11-01T22:45:27.805Z,4.194
2022-11-01T22:50:28.941Z,4.194
2022-11-01T22:55:30.683Z,4.194
2022-11-01T23:15:38.281Z,4.194
2022-11-01T23:20:39.547Z,4.194
2022-11-01T23:25:41.276Z,4.194
2022-11-01T23:30:43.153Z,4.194
2022-11-01T23:35:45.167Z,4.194
2022-11-01T23:40:46.422Z,4.194
2022-11-01T23:45:48.175Z,4.194
2022-11-01T23:50:50.111Z,4.194
2022-11-01T23:55:51.595Z,4.194
